Time;durP1;ratioP1;P1;durP2;ratioP2;P2;SDS_P1;SDS_P2;PMS_P1;PMS_P2;Temp;Humidity;BMP_temperature;BMP_pressure;BME280_temperature;BME280_humidity;BME280_pressure;Samples;Min_cycle;Max_cycle;Signal;HPM_P1;HPM_P2
2021/04/28 00:00:57;;;;;;;23.07;12.13;;;;;;;2.81;63.64;99143.72;1812868;79;21284;-59
2021/04/28 00:03:25;;;;;;;26.07;12.18;;;;;;;2.79;63.62;99147.86;1813044;79;21274;-58
2021/04/28 00:05:52;;;;;;;27.65;13.18;;;;;;;2.77;63.42;99143.12;1813036;79;21279;-60
2021/04/28 00:08:20;;;;;;;28.25;14.33;;;;;;;2.77;63.54;99146.95;1813208;79;21776;-59
2021/04/28 00:10:48;;;;;;;27.35;14.07;;;;;;;2.76;63.64;99149.01;1813023;79;21282;-57
2021/04/28 00:13:18;;;;;;;30.43;15.23;;;;;;;2.78;63.60;99151.64;1813046;79;21156;-59
2021/04/28 00:15:51;;;;;;;31.17;17.07;;;;;;;2.79;63.53;99152.95;1812856;79;21116;-58
2021/04/28 00:18:19;;;;;;;35.15;16.97;;;;;;;2.80;63.64;99152.59;1813088;79;21160;-56
2021/04/28 00:20:48;;;;;;;39.50;20.50;;;;;;;2.80;63.65;99160.23;1815721;79;21159;-60
2021/04/28 00:23:16;;;;;;;38.35;18.73;;;;;;;2.79;63.67;99161.02;1821596;79;21139;-55
2021/04/28 00:25:45;;;;;;;31.97;17.23;;;;;;;2.79;63.76;99156.78;1821637;79;21104;-59
2021/04/28 00:28:13;;;;;;;32.53;17.80;;;;;;;2.78;63.48;99160.15;1821611;79;21152;-58
2021/04/28 00:30:42;;;;;;;26.25;14.10;;;;;;;2.77;63.54;99158.80;1821495;78;21155;-59
2021/04/28 00:33:11;;;;;;;21.07;10.68;;;;;;;2.78;63.18;99157.59;1821781;78;21281;-60
2021/04/28 00:35:40;;;;;;;28.17;15.78;;;;;;;2.80;62.87;99154.73;1821489;79;21289;-60
2021/04/28 00:38:08;;;;;;;30.40;16.20;;;;;;;2.79;62.97;99154.23;1821686;79;21104;-59
2021/04/28 00:40:39;;;;;;;26.37;14.05;;;;;;;2.78;62.86;99156.73;1821329;79;21277;-59
2021/04/28 00:43:08;;;;;;;21.10;11.80;;;;;;;2.76;62.80;99159.20;1821777;79;21738;-60
2021/04/28 00:45:37;;;;;;;20.57;11.95;;;;;;;2.73;62.75;99159.07;1821675;79;21163;-57
2021/04/28 00:48:07;;;;;;;20.82;11.25;;;;;;;2.75;62.56;99157.47;1821593;79;21273;-60
2021/04/28 00:50:41;;;;;;;22.00;11.10;;;;;;;2.76;62.48;99159.61;1821647;79;21539;-58
2021/04/28 00:53:11;;;;;;;;;;;;;;;2.78;62.49;99157.59;1823306;79;21151;-59
2021/04/28 00:55:39;;;;;;;21.73;11.25;;;;;;;2.77;62.44;99170.26;1821493;79;20117;-60
2021/04/28 00:58:09;;;;;;;22.30;11.38;;;;;;;2.76;62.45;99166.84;1821368;79;21136;-57
2021/04/28 01:00:39;;;;;;;26.80;14.45;;;;;;;2.75;62.60;99169.34;1821711;79;21104;-62
2021/04/28 01:03:07;;;;;;;26.07;12.85;;;;;;;2.73;62.78;99167.12;1821424;79;21581;-60
2021/04/28 01:05:36;;;;;;;25.43;14.40;;;;;;;2.69;62.83;99172.47;1821528;79;21281;-59
2021/04/28 01:08:06;;;;;;;29.52;14.28;;;;;;;2.69;62.88;99174.14;1821615;79;21140;-59
2021/04/28 01:10:37;;;;;;;26.23;14.07;;;;;;;2.67;62.89;99174.47;1821454;79;21139;-57
2021/04/28 01:13:07;;;;;;;26.80;12.55;;;;;;;2.65;62.99;99174.42;1821531;79;21140;-57
2021/04/28 01:15:35;;;;;;;25.30;13.08;;;;;;;2.62;63.09;99170.47;1821731;79;21699;-58
2021/04/28 01:18:16;;;;;;;27.58;13.13;;;;;;;2.60;63.11;99172.06;1821363;79;21135;-58
2021/04/28 01:20:45;;;;;;;28.07;13.80;;;;;;;2.61;63.17;99171.25;1821538;79;21159;-57
2021/04/28 01:23:15;;;;;;;28.62;13.05;;;;;;;2.61;63.13;99172.52;1821547;79;21160;-61
2021/04/28 01:25:46;;;;;;;25.92;11.70;;;;;;;2.58;63.08;99171.98;1790003;79;21186;-59
2021/04/28 01:28:25;;;;;;;18.32;10.70;;;;;;;2.56;63.16;99170.16;1821325;79;21734;-58
2021/04/28 01:31:05;;;;;;;18.85;10.32;;;;;;;2.56;62.84;99165.07;1821536;78;21672;-57
2021/04/28 01:33:43;;;;;;;20.25;10.53;;;;;;;2.59;62.61;99169.02;1821023;79;21222;-58
2021/04/28 01:36:19;;;;;;;23.42;11.85;;;;;;;2.58;62.37;99167.30;1821381;79;21151;-57
2021/04/28 01:38:56;;;;;;;27.70;13.35;;;;;;;2.57;62.43;99168.08;1821620;79;21149;-57
2021/04/28 01:41:28;;;;;;;22.50;11.75;;;;;;;2.51;62.61;99160.17;1821332;78;21752;-57
2021/04/28 01:43:58;;;;;;;25.62;13.38;;;;;;;2.49;62.75;99168.13;1821392;78;21273;-60
2021/04/28 01:46:28;;;;;;;25.62;13.95;;;;;;;2.47;62.72;99161.72;1821316;79;21293;-60
2021/04/28 01:48:59;;;;;;;30.12;14.15;;;;;;;2.46;63.02;99164.17;1821822;79;21524;-61
2021/04/28 01:51:29;;;;;;;23.67;12.63;;;;;;;2.45;63.20;99164.99;1821699;79;21140;-59
2021/04/28 01:54:02;;;;;;;24.95;12.90;;;;;;;2.44;63.17;99160.27;1789554;79;21286;-60
2021/04/28 01:56:31;;;;;;;27.62;12.68;;;;;;;2.44;63.16;99169.19;1821604;79;21147;-57
2021/04/28 01:59:08;;;;;;;23.20;10.85;;;;;;;2.42;63.17;99167.00;1821607;79;21550;-60
2021/04/28 02:01:48;;;;;;;22.10;10.93;;;;;;;2.44;62.95;99163.23;1818493;79;21175;-56
2021/04/28 02:04:17;;;;;;;20.57;11.25;;;;;;;2.44;62.81;99165.77;1821305;79;21320;-57
2021/04/28 02:06:50;;;;;;;20.82;11.20;;;;;;;2.43;62.80;99163.63;1821313;79;21144;-58
2021/04/28 02:09:18;;;;;;;25.50;13.00;;;;;;;2.44;62.72;99168.32;1821446;79;21120;-58
2021/04/28 02:11:47;;;;;;;26.60;13.22;;;;;;;2.45;62.71;99164.99;1821692;79;21146;-60
2021/04/28 02:14:21;;;;;;;23.20;13.00;;;;;;;2.43;62.83;99164.05;1821416;79;21104;-58
2021/04/28 02:16:53;;;;;;;19.00;10.68;;;;;;;2.41;62.93;99169.46;1820279;79;21143;-58
2021/04/28 02:19:23;;;;;;;20.97;12.18;;;;;;;2.37;62.84;99161.69;1821526;79;21530;-59
2021/04/28 02:21:54;;;;;;;22.45;12.25;;;;;;;2.36;62.95;99161.59;1821448;79;21703;-56
2021/04/28 02:24:24;;;;;;;22.42;12.25;;;;;;;2.33;63.12;99168.70;1820597;79;21143;-58
2021/04/28 02:26:57;;;;;;;24.98;13.22;;;;;;;2.31;63.21;99170.29;1821551;79;21305;-57
2021/04/28 02:29:27;;;;;;;24.65;14.20;;;;;;;2.31;63.35;99178.34;1821585;79;21523;-57
2021/04/28 02:31:55;;;;;;;25.52;13.43;;;;;;;2.26;63.50;99178.12;1821612;79;21167;-60
2021/04/28 02:34:26;;;;;;;30.55;16.62;;;;;;;2.23;63.63;99172.89;1820404;79;21171;-57
2021/04/28 02:36:58;;;;;;;28.87;14.70;;;;;;;2.20;63.99;99172.75;1817552;79;21317;-57
2021/04/28 02:39:49;;;;;;;28.62;15.48;;;;;;;2.17;64.03;99175.16;1816272;79;21313;-56
2021/04/28 02:42:17;;;;;;;31.87;16.50;;;;;;;2.15;64.06;99176.75;1789731;79;21266;-58
2021/04/28 02:44:48;;;;;;;28.60;16.62;;;;;;;2.12;64.09;99180.02;1821613;79;21316;-57
2021/04/28 02:47:16;;;;;;;;;;;;;;;2.10;64.43;99186.70;1824298;79;21139;-56
2021/04/28 02:49:46;;;;;;;33.00;16.90;;;;;;;2.06;64.76;99178.84;1821724;79;20394;-57
2021/04/28 02:52:29;;;;;;;30.32;16.30;;;;;;;2.01;64.88;99182.84;1787460;79;21155;-60
2021/04/28 02:54:57;;;;;;;28.30;14.93;;;;;;;2.01;64.87;99182.84;1821278;79;21164;-59
2021/04/28 02:57:26;;;;;;;31.62;17.00;;;;;;;2.03;64.70;99183.80;1821276;79;21325;-59
2021/04/28 02:59:55;;;;;;;23.32;11.65;;;;;;;2.05;64.81;99183.47;1821391;79;21143;-57
2021/04/28 03:02:26;;;;;;;24.95;13.28;;;;;;;2.05;64.76;99183.47;1821464;78;21163;-56
2021/04/28 03:04:55;;;;;;;22.05;13.38;;;;;;;2.10;64.82;99182.02;1821748;78;21147;-60
2021/04/28 03:07:23;;;;;;;26.10;14.18;;;;;;;2.14;64.42;99184.80;1821768;78;21281;-57
2021/04/28 03:09:52;;;;;;;29.32;16.35;;;;;;;2.16;64.55;99181.92;1821585;79;21151;-59
2021/04/28 03:12:22;;;;;;;38.90;17.98;;;;;;;2.17;64.71;99186.61;1821671;79;21330;-57
2021/04/28 03:14:53;;;;;;;33.63;15.98;;;;;;;2.19;64.79;99185.02;1789603;79;21544;-62
2021/04/28 03:17:22;;;;;;;31.85;17.07;;;;;;;2.22;64.74;99190.25;1821430;79;21147;-59
2021/04/28 03:19:54;;;;;;;26.10;14.55;;;;;;;2.22;65.02;99188.98;1821442;79;21151;-61
2021/04/28 03:22:23;;;;;;;23.98;12.95;;;;;;;2.24;65.12;99191.58;1765025;79;21301;-60
2021/04/28 03:24:52;;;;;;;24.75;11.97;;;;;;;2.26;64.94;99194.66;1823975;79;21178;-57
2021/04/28 03:27:23;;;;;;;22.67;11.30;;;;;;;2.29;64.33;99195.21;1823633;79;21175;-58
2021/04/28 03:29:52;;;;;;;21.48;11.70;;;;;;;2.39;63.79;99202.48;1823490;77;21960;-58
2021/04/28 03:32:19;;;;;;;29.37;14.15;;;;;;;2.48;63.55;99204.61;1832919;77;21110;-61
2021/04/28 03:34:50;;;;;;;20.82;11.53;;;;;;;2.55;63.32;99206.23;1832413;77;21173;-61
2021/04/28 03:37:18;;;;;;;20.23;11.55;;;;;;;2.62;63.05;99207.41;1823772;79;21146;-57
2021/04/28 03:39:47;;;;;;;25.12;9.05;;;;;;;2.65;62.62;99211.36;1823821;79;21307;-57
2021/04/28 03:42:16;;;;;;;15.93;7.45;;;;;;;2.70;61.88;99217.55;1828298;77;21695;-60
2021/04/28 03:44:44;;;;;;;22.30;12.95;;;;;;;2.77;60.82;99211.03;1823567;79;21141;-64
2021/04/28 03:47:12;;;;;;;28.73;14.85;;;;;;;2.85;61.36;99216.11;1800888;79;21137;-63
2021/04/28 03:49:41;;;;;;;24.60;12.58;;;;;;;2.86;61.72;99222.06;1837004;77;21542;-64
2021/04/28 03:52:10;;;;;;;23.47;13.65;;;;;;;2.90;62.14;99225.20;1762966;80;21305;-63
2021/04/28 03:54:58;;;;;;;35.58;16.40;;;;;;;2.95;62.12;99229.73;1828452;77;21605;-69
2021/04/28 03:57:26;;;;;;;27.90;13.55;;;;;;;2.97;62.43;99232.34;1823710;79;21148;-60
2021/04/28 03:59:54;;;;;;;25.00;13.70;;;;;;;3.02;62.30;99232.14;1824075;79;21317;-62
2021/04/28 04:02:22;;;;;;;26.97;13.75;;;;;;;3.09;62.01;99235.45;1823986;79;21135;-66
2021/04/28 04:05:10;;;;;;;26.75;14.23;;;;;;;3.14;61.93;99230.15;1823913;78;21171;-54
2021/04/28 04:07:41;;;;;;;31.10;16.30;;;;;;;3.23;61.60;99239.49;1817130;79;21158;-60
2021/04/28 04:10:12;;;;;;;24.95;14.03;;;;;;;3.28;62.14;99246.05;1821614;79;21165;-59
2021/04/28 04:12:40;;;;;;;28.07;15.63;;;;;;;3.36;62.26;99248.94;1823905;79;21153;-60
2021/04/28 04:15:09;;;;;;;37.10;16.67;;;;;;;3.42;62.15;99251.77;1823901;79;21134;-58
2021/04/28 04:17:37;;;;;;;35.23;19.70;;;;;;;3.47;62.04;99252.84;1823894;77;21259;-59
2021/04/28 04:20:13;;;;;;;39.78;18.25;;;;;;;3.55;62.40;99250.22;1829927;77;21103;-62
2021/04/28 04:22:43;;;;;;;41.65;21.00;;;;;;;3.63;62.30;99253.10;1844819;77;21142;-57
2021/04/28 04:25:13;;;;;;;35.35;19.15;;;;;;;3.72;62.49;99261.58;1765867;80;21138;-61
2021/04/28 04:27:41;;;;;;;28.77;16.62;;;;;;;3.77;62.51;99260.95;1855005;77;21149;-57
2021/04/28 04:30:21;;;;;;;27.73;15.00;;;;;;;3.86;62.04;99260.46;1853470;77;21134;-59
2021/04/28 04:33:01;;;;;;;19.40;10.03;;;;;;;3.95;60.91;99266.38;1752882;82;21164;-58
2021/04/28 04:35:48;;;;;;;20.88;10.85;;;;;;;4.02;59.06;99269.25;1825863;77;21576;-60
2021/04/28 04:38:35;;;;;;;18.00;9.58;;;;;;;4.17;58.37;99273.23;1825922;77;21150;-61
2021/04/28 04:41:20;;;;;;;20.15;10.20;;;;;;;4.30;57.32;99272.91;1836848;77;21547;-59
2021/04/28 04:44:07;;;;;;;24.43;11.97;;;;;;;4.41;56.92;99281.91;1825674;77;21170;-59
2021/04/28 04:46:42;;;;;;;19.67;10.95;;;;;;;4.55;56.92;99282.06;1824637;77;21078;-63
2021/04/28 04:49:10;;;;;;;23.95;12.20;;;;;;;4.64;56.65;99285.37;1832708;77;21158;-59
2021/04/28 04:51:38;;;;;;;22.42;12.85;;;;;;;4.75;56.57;99285.80;1829008;77;21268;-59
2021/04/28 04:54:06;;;;;;;24.82;12.68;;;;;;;4.90;56.91;99288.08;1825788;77;21157;-58
2021/04/28 04:56:34;;;;;;;21.80;12.78;;;;;;;4.99;56.38;99285.48;1821416;77;21264;-60
2021/04/28 04:59:03;;;;;;;24.32;10.63;;;;;;;5.11;56.35;99290.58;1830592;77;21131;-56
2021/04/28 05:01:30;;;;;;;16.93;8.65;;;;;;;5.25;55.37;99295.81;1829106;77;21139;-60
2021/04/28 05:03:58;;;;;;;13.18;7.85;;;;;;;5.40;54.49;99291.68;1826692;77;21139;-63
2021/04/28 05:06:26;;;;;;;23.02;8.55;;;;;;;5.55;53.86;99303.76;1821619;79;21281;-60
2021/04/28 05:08:53;;;;;;;15.53;7.17;;;;;;;5.68;53.33;99299.95;1801054;79;21561;-59
2021/04/28 05:11:21;;;;;;;11.95;6.58;;;;;;;5.81;52.15;99307.66;1820307;77;21332;-63
2021/04/28 05:13:49;;;;;;;12.05;5.45;;;;;;;5.94;51.47;99308.99;1821536;79;21118;-61
2021/04/28 05:16:16;;;;;;;11.22;6.22;;;;;;;6.59;50.03;99305.22;1821569;77;21150;-60
2021/04/28 05:18:45;;;;;;;13.13;6.60;;;;;;;7.83;47.37;99313.16;1821291;79;21281;-64
2021/04/28 05:21:12;;;;;;;13.08;7.03;;;;;;;9.70;44.90;99317.64;1821592;79;21127;-60
2021/04/28 05:23:40;;;;;;;12.20;6.90;;;;;;;11.60;40.28;99320.31;1826661;78;21279;-60
2021/04/28 05:26:10;;;;;;;11.68;5.50;;;;;;;12.96;37.75;99331.20;1816983;78;21142;-57
2021/04/28 05:28:40;;;;;;;12.43;6.35;;;;;;;14.21;34.76;99330.08;1827237;78;21540;-62
2021/04/28 05:31:08;;;;;;;11.57;5.97;;;;;;;15.27;34.35;99334.89;1827404;78;21135;-59
2021/04/28 05:33:36;;;;;;;9.13;5.53;;;;;;;16.58;32.73;99343.41;1827121;78;21150;-61
2021/04/28 05:36:07;;;;;;;8.95;5.22;;;;;;;17.86;30.07;99345.27;1827107;78;21103;-61
2021/04/28 05:38:35;;;;;;;9.03;4.92;;;;;;;19.13;28.87;99351.65;1827340;78;21272;-59
2021/04/28 05:41:04;;;;;;;10.30;6.00;;;;;;;20.61;27.10;99356.12;1827162;77;21292;-63
2021/04/28 05:43:32;;;;;;;8.68;5.92;;;;;;;22.20;25.44;99357.58;1827274;78;21142;-60
2021/04/28 05:46:01;;;;;;;9.33;5.45;;;;;;;23.63;23.83;99364.73;1827160;78;21221;-58
2021/04/28 05:48:29;;;;;;;13.88;5.65;;;;;;;24.40;22.39;99375.95;1827277;77;21154;-62
2021/04/28 05:50:57;;;;;;;8.55;4.47;;;;;;;24.93;21.39;99384.44;1827080;77;21220;-59
2021/04/28 05:53:24;;;;;;;6.62;3.85;;;;;;;25.07;20.78;99380.30;1827391;77;21095;-61
2021/04/28 05:55:52;;;;;;;8.18;3.33;;;;;;;25.02;20.05;99388.03;1827071;77;21117;-59
2021/04/28 05:58:20;;;;;;;8.10;3.75;;;;;;;25.43;19.60;99390.27;1826929;77;21256;-62
2021/04/28 06:00:47;;;;;;;6.15;3.45;;;;;;;26.35;18.92;99391.43;1827352;78;21268;-60
2021/04/28 06:03:15;;;;;;;4.53;1.92;;;;;;;27.47;18.07;99396.56;1827241;78;21280;-62
2021/04/28 06:05:42;;;;;;;4.60;1.60;;;;;;;27.60;16.75;99406.55;1817612;78;21241;-58
2021/04/28 06:08:12;;;;;;;6.42;2.72;;;;;;;27.56;16.53;99402.36;1736822;82;21177;-60
2021/04/28 06:10:40;;;;;;;7.50;2.95;;;;;;;28.41;16.32;99414.63;1815602;78;21720;-61
2021/04/28 06:13:10;;;;;;;4.15;2.30;;;;;;;29.23;15.96;99406.44;1818169;78;21147;-59
2021/04/28 06:15:39;;;;;;;7.37;3.22;;;;;;;29.84;15.41;99415.23;1818826;78;21711;-60
2021/04/28 06:18:07;;;;;;;8.90;3.20;;;;;;;30.10;15.12;99421.63;1819205;78;21146;-61
2021/04/28 06:20:37;;;;;;;5.25;2.45;;;;;;;30.16;14.75;99420.38;1817678;78;21100;-64
2021/04/28 06:23:05;;;;;;;4.30;2.12;;;;;;;30.38;14.66;99426.55;1813906;78;21406;-61
2021/04/28 06:25:33;;;;;;;4.67;2.40;;;;;;;30.80;14.26;99422.94;1812671;79;21091;-62
2021/04/28 06:28:01;;;;;;;4.45;2.00;;;;;;;31.07;14.10;99428.80;1760262;81;21148;-62
2021/04/28 06:30:29;;;;;;;4.45;2.25;;;;;;;31.10;13.75;99429.91;1817209;78;21103;-61
2021/04/28 06:32:56;;;;;;;4.03;1.98;;;;;;;31.35;13.90;99428.64;1817302;78;21166;-61
2021/04/28 06:35:24;;;;;;;7.00;2.77;;;;;;;31.99;13.50;99433.23;1813078;78;21290;-61
2021/04/28 06:37:52;;;;;;;3.92;1.95;;;;;;;31.93;13.24;99434.52;1813060;78;21126;-62
2021/04/28 06:40:22;;;;;;;5.45;2.00;;;;;;;31.21;13.69;99440.70;1812619;78;21138;-60
2021/04/28 06:42:51;;;;;;;4.85;1.90;;;;;;;31.82;13.31;99438.86;1812814;79;21138;-63
2021/04/28 06:45:19;;;;;;;4.97;2.35;;;;;;;32.21;12.82;99438.77;1813025;79;21169;-63
2021/04/28 06:47:48;;;;;;;7.35;2.52;;;;;;;32.58;12.75;99445.49;1812766;79;21268;-62
2021/04/28 06:50:16;;;;;;;3.77;1.87;;;;;;;32.91;12.44;99442.66;1812600;77;21166;-64
2021/04/28 06:52:44;;;;;;;4.90;1.67;;;;;;;32.98;12.34;99441.23;1764523;80;21587;-63
2021/04/28 06:55:14;;;;;;;3.60;1.80;;;;;;;32.83;12.07;99445.89;1818161;78;21313;-63
2021/04/28 06:57:43;;;;;;;2.60;1.70;;;;;;;32.08;12.43;99453.93;1742769;82;21147;-63
2021/04/28 07:00:12;;;;;;;4.87;1.75;;;;;;;32.12;12.51;99455.92;1812778;79;21146;-67
2021/04/28 07:02:40;;;;;;;3.92;1.75;;;;;;;32.23;11.99;99450.66;1812902;79;21221;-67
2021/04/28 07:05:10;;;;;;;4.60;2.45;;;;;;;31.72;12.42;99451.49;1823385;78;21126;-63
2021/04/28 07:07:38;;;;;;;3.85;1.90;;;;;;;30.82;12.88;99447.72;1812986;78;21298;-64
2021/04/28 07:10:07;;;;;;;3.52;1.75;;;;;;;30.93;12.68;99451.01;1812999;79;21163;-66
2021/04/28 07:12:35;;;;;;;3.83;1.90;;;;;;;30.64;13.19;99453.73;1813026;79;21349;-65
2021/04/28 07:15:05;;;;;;;5.95;2.70;;;;;;;30.52;12.94;99443.84;1812996;79;21298;-64
2021/04/28 07:17:34;;;;;;;5.17;2.30;;;;;;;30.15;13.32;99450.15;1812937;79;21140;-65
2021/04/28 07:20:08;;;;;;;4.28;1.80;;;;;;;29.80;13.58;99450.50;1813085;78;21317;-65
2021/04/28 07:22:36;;;;;;;3.87;1.52;;;;;;;30.12;13.17;99445.47;1819692;77;21315;-67
2021/04/28 07:25:05;;;;;;;3.95;1.87;;;;;;;30.05;13.03;99455.18;1824872;77;21727;-69
2021/04/28 07:27:33;;;;;;;3.72;1.75;;;;;;;29.64;13.34;99449.21;1840931;77;21130;-66
2021/04/28 07:30:00;;;;;;;4.05;1.57;;;;;;;29.62;13.40;99456.90;1825766;77;21143;-69
2021/04/28 07:32:28;;;;;;;5.47;1.92;;;;;;;29.70;13.30;99457.80;1821483;79;21148;-66
2021/04/28 07:34:55;;;;;;;4.10;1.72;;;;;;;30.22;13.12;99451.45;1821423;79;21156;-66
2021/04/28 07:37:23;;;;;;;3.27;1.98;;;;;;;30.68;12.67;99450.38;1821476;79;21134;-65
2021/04/28 07:39:51;;;;;;;3.92;2.12;;;;;;;29.77;13.08;99437.87;1751659;82;21288;-65
2021/04/28 07:42:18;;;;;;;3.87;2.10;;;;;;;29.25;13.38;99451.08;1821315;79;21192;-66
2021/04/28 07:44:47;;;;;;;4.83;2.17;;;;;;;28.74;13.79;99445.97;1751739;81;21198;-65
2021/04/28 07:47:15;;;;;;;4.00;2.27;;;;;;;28.64;14.03;99452.73;1829197;78;21142;-62
2021/04/28 07:49:43;;;;;;;4.33;2.00;;;;;;;28.89;13.77;99450.05;1824812;77;21586;-63
2021/04/28 07:52:12;;;;;;;3.90;2.10;;;;;;;28.93;13.86;99447.13;1758392;80;21708;-73
2021/04/28 07:54:40;;;;;;;3.98;2.10;;;;;;;29.05;13.72;99445.58;1834201;77;21133;-70
2021/04/28 07:57:08;;;;;;;4.20;2.30;;;;;;;29.20;13.66;99450.48;1823518;77;21136;-67
2021/04/28 07:59:36;;;;;;;5.22;2.30;;;;;;;28.88;14.16;99440.38;1821106;79;21578;-71
2021/04/28 08:02:04;;;;;;;4.80;2.40;;;;;;;28.66;13.97;99438.91;1825144;77;21613;-73
2021/04/28 08:04:33;;;;;;;6.92;2.45;;;;;;;28.10;14.31;99446.83;1823382;77;21260;-68
2021/04/28 08:07:02;;;;;;;5.12;2.25;;;;;;;28.40;14.17;99450.95;1828981;77;21349;-72
2021/04/28 08:09:29;;;;;;;4.17;2.37;;;;;;;28.70;14.04;99441.79;1829061;77;21276;-71
2021/04/28 08:11:57;;;;;;;5.05;2.65;;;;;;;28.44;14.35;99447.20;1829109;77;21260;-72
2021/04/28 08:14:26;;;;;;;6.60;2.42;;;;;;;28.75;14.36;99448.15;1832381;77;21293;-66
2021/04/28 08:16:54;;;;;;;3.58;1.85;;;;;;;29.17;13.85;99454.19;1830527;77;21206;-68
2021/04/28 08:19:22;;;;;;;3.62;1.80;;;;;;;29.53;13.69;99450.31;1824732;77;21303;-68
2021/04/28 08:21:49;;;;;;;5.20;1.80;;;;;;;30.01;13.37;99452.31;1825667;77;21189;-67
2021/04/28 08:24:17;;;;;;;3.37;1.60;;;;;;;29.93;13.11;99449.27;1824922;78;21280;-68
2021/04/28 08:26:46;;;;;;;3.08;1.82;;;;;;;29.69;13.25;99440.11;1744077;82;21256;-75
2021/04/28 08:29:14;;;;;;;3.75;2.10;;;;;;;29.35;13.46;99440.28;1812320;78;21093;-70
2021/04/28 08:31:42;;;;;;;5.72;2.33;;;;;;;28.85;13.69;99440.52;1812151;78;21309;-65
2021/04/28 08:34:09;;;;;;;3.92;2.10;;;;;;;28.27;14.02;99438.81;1808713;78;21264;-71
2021/04/28 08:36:37;;;;;;;4.30;1.60;;;;;;;27.43;14.36;99432.14;1832408;78;21178;-73
2021/04/28 08:39:08;;;;;;;3.77;1.98;;;;;;;26.80;14.78;99433.04;1808645;78;21307;-70
2021/04/28 08:41:37;;;;;;;2.83;1.47;;;;;;;26.84;14.45;99435.47;1811765;78;21707;-68
2021/04/28 08:44:07;;;;;;;3.25;1.55;;;;;;;25.85;15.00;99426.80;1809003;78;21298;-72
2021/04/28 08:46:36;;;;;;;4.53;1.77;;;;;;;24.46;15.96;99428.50;1808901;78;21329;-68
2021/04/28 08:49:05;;;;;;;3.55;2.05;;;;;;;23.95;16.61;99423.38;1825770;78;21151;-70
2021/04/28 08:51:35;;;;;;;4.42;2.17;;;;;;;24.39;16.57;99426.12;1815866;77;21286;-67
2021/04/28 08:54:07;;;;;;;4.42;2.10;;;;;;;24.50;16.78;99417.81;1712789;83;21163;-67
2021/04/28 08:56:36;;;;;;;5.10;2.17;;;;;;;24.19;16.68;99418.49;1818906;78;21203;-71
2021/04/28 08:59:05;;;;;;;3.35;1.87;;;;;;;23.78;16.96;99420.88;1808611;78;21108;-67
2021/04/28 09:01:37;;;;;;;4.08;2.00;;;;;;;23.67;17.27;99423.47;1806668;78;21162;-70
2021/04/28 09:04:23;;;;;;;4.55;1.80;;;;;;;23.19;17.29;99417.19;1810826;78;21562;-67
2021/04/28 09:06:51;;;;;;;3.47;1.87;;;;;;;22.69;17.81;99413.92;1817191;77;21126;-69
2021/04/28 09:09:20;;;;;;;5.72;1.92;;;;;;;22.17;18.05;99415.48;1808579;77;21578;-67
2021/04/28 09:11:58;;;;;;;4.95;1.92;;;;;;;22.08;18.21;99411.80;1816432;77;21524;-69
2021/04/28 09:14:32;;;;;;;5.17;2.12;;;;;;;21.95;18.53;99409.97;1817480;78;21193;-67
2021/04/28 09:17:04;;;;;;;4.25;1.95;;;;;;;21.54;18.94;99403.23;1812560;78;21142;-69
2021/04/28 09:20:12;;;;;;;;;;;;;;;20.77;18.99;99403.36;1817360;78;21106;-65
2021/04/28 09:23:15;;;;;;;3.92;1.92;;;;;;;19.53;20.06;99399.35;1817673;78;20137;-68
2021/04/28 09:26:04;;;;;;;3.70;2.20;;;;;;;18.14;21.58;99394.52;1812448;79;21162;-67
2021/04/28 09:28:52;;;;;;;4.95;2.35;;;;;;;17.61;22.38;99393.39;1814274;78;21076;-70
2021/04/28 09:31:20;;;;;;;3.98;2.25;;;;;;;17.26;22.58;99385.02;1812117;79;21164;-67
2021/04/28 09:33:55;;;;;;;6.67;2.77;;;;;;;16.75;23.06;99387.16;1828295;78;21143;-68
2021/04/28 09:36:34;;;;;;;7.50;2.20;;;;;;;16.13;23.49;99389.28;1819775;78;21572;-67
2021/04/28 09:39:13;;;;;;;4.97;2.15;;;;;;;15.61;24.06;99392.88;1749352;80;21311;-66
2021/04/28 09:41:44;;;;;;;4.33;2.00;;;;;;;15.22;24.58;99385.17;1814570;78;21272;-70
2021/04/28 09:44:30;;;;;;;5.72;2.65;;;;;;;14.60;25.61;99387.73;1812691;79;21285;-70
2021/04/28 09:47:15;;;;;;;6.25;2.30;;;;;;;14.10;26.18;99384.56;1812555;79;21334;-68
2021/04/28 09:49:58;;;;;;;5.60;2.05;;;;;;;13.85;26.33;99379.70;1812079;78;21311;-66
2021/04/28 09:52:36;;;;;;;3.47;2.05;;;;;;;13.72;26.51;99376.63;1825840;78;21288;-70
2021/04/28 09:55:10;;;;;;;5.17;2.75;;;;;;;13.57;26.04;99371.78;1823717;78;21668;-66
2021/04/28 09:57:43;;;;;;;3.72;2.17;;;;;;;13.38;26.15;99377.31;1756872;81;21585;-65
2021/04/28 10:00:23;;;;;;;4.65;2.30;;;;;;;13.31;26.63;99372.08;1799646;79;21320;-67
2021/04/28 10:03:04;;;;;;;6.58;2.20;;;;;;;13.27;26.80;99366.42;1789000;79;21162;-67
2021/04/28 10:05:36;;;;;;;5.47;2.52;;;;;;;13.19;26.69;99349.05;1794083;79;21161;-68
2021/04/28 10:08:18;;;;;;;;;;;;;;;12.99;27.04;99359.27;1811529;79;21154;-68
2021/04/28 10:10:46;;;;;;;6.78;2.60;;;;;;;12.81;27.20;99358.70;1780926;79;20132;-71
2021/04/28 10:13:15;;;;;;;5.22;2.30;;;;;;;12.72;27.37;99356.06;1793852;79;21151;-66
2021/04/28 10:15:44;;;;;;;5.42;2.30;;;;;;;12.56;27.74;99355.46;1798439;79;21138;-63
2021/04/28 10:18:15;;;;;;;4.25;2.30;;;;;;;12.54;28.25;99344.22;1786817;79;21055;-70
2021/04/28 10:20:45;;;;;;;5.42;2.58;;;;;;;12.45;28.28;99345.45;1778259;79;21051;-65
2021/04/28 10:23:17;;;;;;;6.42;2.52;;;;;;;12.47;28.78;99346.33;1803894;79;21197;-70
2021/04/28 10:25:50;;;;;;;5.45;2.70;;;;;;;12.63;28.73;99348.20;1792858;79;21200;-66
2021/04/28 10:28:20;;;;;;;5.85;2.95;;;;;;;12.84;28.11;99346.64;1804385;79;21196;-65
2021/04/28 10:30:49;;;;;;;5.25;2.80;;;;;;;12.95;27.72;99353.66;1782486;79;21034;-68
2021/04/28 10:33:21;;;;;;;6.92;2.85;;;;;;;12.87;27.42;99350.55;1791836;79;21046;-68
2021/04/28 10:35:51;;;;;;;6.45;2.67;;;;;;;12.66;28.40;99343.03;1798895;79;21027;-67
2021/04/28 10:38:23;;;;;;;7.20;2.50;;;;;;;12.78;28.63;99343.58;1799130;79;21477;-69
2021/04/28 10:40:51;;;;;;;4.25;2.30;;;;;;;12.92;28.47;99348.85;1796196;79;21153;-70
2021/04/28 10:43:20;;;;;;;5.40;2.80;;;;;;;13.13;28.65;99342.55;1790233;79;21066;-66
2021/04/28 10:45:49;;;;;;;5.95;2.72;;;;;;;13.32;28.31;99337.51;1796870;79;21038;-66
2021/04/28 10:48:21;;;;;;;6.30;3.00;;;;;;;13.47;28.10;99336.30;1776744;79;21043;-66
2021/04/28 10:50:49;;;;;;;4.75;2.47;;;;;;;13.50;27.99;99336.73;1794772;79;21035;-66
2021/04/28 10:53:23;;;;;;;5.15;2.55;;;;;;;13.51;27.73;99336.77;1784533;79;21035;-69
2021/04/28 10:56:00;;;;;;;4.62;2.52;;;;;;;13.56;27.49;99326.39;1781541;79;21012;-66
2021/04/28 10:58:34;;;;;;;5.87;2.83;;;;;;;13.72;27.73;99321.72;1788556;79;21220;-69
2021/04/28 11:01:08;;;;;;;5.92;2.72;;;;;;;13.93;27.50;99328.70;1799504;79;21422;-69
2021/04/28 11:03:44;;;;;;;5.20;2.77;;;;;;;14.13;27.57;99324.02;1786301;79;21485;-67
2021/04/28 11:06:24;;;;;;;4.87;2.42;;;;;;;14.23;26.67;99321.44;1775332;79;21047;-66
2021/04/28 11:09:00;;;;;;;5.55;2.77;;;;;;;14.30;26.84;99328.81;1786052;79;21027;-68
2021/04/28 11:11:45;;;;;;;6.40;2.60;;;;;;;14.33;26.79;99326.22;1792008;79;21059;-64
2021/04/28 11:14:19;;;;;;;4.83;2.67;;;;;;;14.40;26.87;99329.27;1780783;79;21055;-70
2021/04/28 11:17:03;;;;;;;5.87;2.60;;;;;;;14.25;26.85;99320.16;1791875;79;21168;-69
2021/04/28 11:19:36;;;;;;;6.47;2.90;;;;;;;14.13;26.61;99320.98;1752131;80;21654;-66
2021/04/28 11:22:23;;;;;;;5.28;2.72;;;;;;;14.06;27.32;99305.81;1803480;79;21173;-67
2021/04/28 11:25:12;;;;;;;7.00;2.52;;;;;;;14.11;27.17;99313.18;1773479;79;21098;-68
2021/04/28 11:27:44;;;;;;;5.97;2.58;;;;;;;13.83;27.27;99320.45;1786212;80;21054;-67
2021/04/28 11:30:40;;;;;;;5.53;2.95;;;;;;;13.68;27.78;99307.85;1787951;79;21066;-67
2021/04/28 11:33:31;;;;;;;5.47;3.00;;;;;;;13.73;27.73;99310.47;1789613;79;21019;-70
2021/04/28 11:36:06;;;;;;;6.05;2.87;;;;;;;13.71;28.27;99294.03;1806947;78;21055;-70
2021/04/28 11:38:39;;;;;;;7.20;3.20;;;;;;;13.52;28.24;99298.29;1802136;79;21014;-68
2021/04/28 11:41:11;;;;;;;7.28;2.72;;;;;;;13.53;28.78;99303.91;1786507;79;21035;-66
2021/04/28 11:43:50;;;;;;;4.62;2.62;;;;;;;13.83;28.69;99298.41;1786760;80;20995;-68
2021/04/28 11:46:24;;;;;;;6.85;2.95;;;;;;;14.21;27.83;99305.42;1786584;79;21030;-65
2021/04/28 11:48:56;;;;;;;8.68;3.05;;;;;;;14.23;27.28;99306.30;1786551;79;21168;-69
2021/04/28 11:51:31;;;;;;;5.17;2.98;;;;;;;14.10;27.58;99302.81;1786454;80;21159;-67